sensor_id;sensor_type;location;lat;lon;timestamp;temperature;humidity
71668;DHT22;59504;54.806;9.640;2024-02-15T00:02:01;9.10;91.40
71668;DHT22;59504;54.806;9.640;2024-02-15T00:04:20;9.10;91.10
71668;DHT22;59504;54.806;9.640;2024-02-15T00:06:40;9.30;91.10
71668;DHT22;59504;54.806;9.640;2024-02-15T00:08:59;9.20;91.10
71668;DHT22;59504;54.806;9.640;2024-02-15T00:11:18;9.10;91.10
71668;DHT22;59504;54.806;9.640;2024-02-15T00:13:37;9.10;91.00
71668;DHT22;59504;54.806;9.640;2024-02-15T00:15:56;9.10;91.10
71668;DHT22;59504;54.806;9.640;2024-02-15T00:18:15;9.20;91.10
71668;DHT22;59504;54.806;9.640;2024-02-15T00:20:35;9.10;91.10
71668;DHT22;59504;54.806;9.640;2024-02-15T00:22:54;9.20;91.10
71668;DHT22;59504;54.806;9.640;2024-02-15T00:25:14;9.10;91.10
71668;DHT22;59504;54.806;9.640;2024-02-15T00:27:34;9.20;91.10
71668;DHT22;59504;54.806;9.640;2024-02-15T00:29:54;9.20;91.00
71668;DHT22;59504;54.806;9.640;2024-02-15T00:32:14;9.20;91.10
71668;DHT22;59504;54.806;9.640;2024-02-15T00:34:33;9.30;91.10
71668;DHT22;59504;54.806;9.640;2024-02-15T00:36:52;9.20;91.10
71668;DHT22;59504;54.806;9.640;2024-02-15T00:39:12;9.20;91.10
71668;DHT22;59504;54.806;9.640;2024-02-15T00:41:37;9.40;91.10
71668;DHT22;59504;54.806;9.640;2024-02-15T00:43:56;9.30;91.10
71668;DHT22;59504;54.806;9.640;2024-02-15T00:46:16;9.30;91.20
71668;DHT22;59504;54.806;9.640;2024-02-15T00:48:35;9.30;91.20
71668;DHT22;59504;54.806;9.640;2024-02-15T00:50:55;9.20;91.10
71668;DHT22;59504;54.806;9.640;2024-02-15T00:53:14;9.30;91.20
71668;DHT22;59504;54.806;9.640;2024-02-15T00:55:33;9.30;91.20
71668;DHT22;59504;54.806;9.640;2024-02-15T00:57:52;9.30;91.20
71668;DHT22;59504;54.806;9.640;2024-02-15T01:00:12;9.30;91.20
71668;DHT22;59504;54.806;9.640;2024-02-15T01:02:32;9.30;91.20
71668;DHT22;59504;54.806;9.640;2024-02-15T01:04:51;9.30;91.20
71668;DHT22;59504;54.806;9.640;2024-02-15T01:07:12;9.40;91.20
71668;DHT22;59504;54.806;9.640;2024-02-15T01:09:32;9.30;91.20
71668;DHT22;59504;54.806;9.640;2024-02-15T01:11:51;9.40;91.20
71668;DHT22;59504;54.806;9.640;2024-02-15T01:14:11;9.40;91.20
71668;DHT22;59504;54.806;9.640;2024-02-15T01:16:30;9.30;91.20
71668;DHT22;59504;54.806;9.640;2024-02-15T01:18:50;9.40;91.60
71668;DHT22;59504;54.806;9.640;2024-02-15T01:21:09;9.40;91.30
71668;DHT22;59504;54.806;9.640;2024-02-15T01:23:30;9.30;91.20
71668;DHT22;59504;54.806;9.640;2024-02-15T01:25:49;9.30;91.20
71668;DHT22;59504;54.806;9.640;2024-02-15T01:27:50;9.40;91.30
71668;DHT22;59504;54.806;9.640;2024-02-15T01:29:51;9.40;91.20
71668;DHT22;59504;54.806;9.640;2024-02-15T01:31:52;9.50;91.30
71668;DHT22;59504;54.806;9.640;2024-02-15T01:33:52;9.40;91.20
71668;DHT22;59504;54.806;9.640;2024-02-15T01:35:53;9.50;91.30
71668;DHT22;59504;54.806;9.640;2024-02-15T01:37:54;9.40;91.20
71668;DHT22;59504;54.806;9.640;2024-02-15T01:39:54;9.40;91.20
71668;DHT22;59504;54.806;9.640;2024-02-15T01:41:55;9.50;91.30
71668;DHT22;59504;54.806;9.640;2024-02-15T01:43:56;9.40;91.20
71668;DHT22;59504;54.806;9.640;2024-02-15T01:45:57;9.50;91.30
71668;DHT22;59504;54.806;9.640;2024-02-15T01:48:01;9.40;91.20
71668;DHT22;59504;54.806;9.640;2024-02-15T01:50:04;9.50;91.20
71668;DHT22;59504;54.806;9.640;2024-02-15T01:52:05;9.50;91.20
71668;DHT22;59504;54.806;9.640;2024-02-15T01:54:11;9.50;91.20
71668;DHT22;59504;54.806;9.640;2024-02-15T01:56:13;9.50;91.20
71668;DHT22;59504;54.806;9.640;2024-02-15T01:58:15;9.50;91.30
71668;DHT22;59504;54.806;9.640;2024-02-15T02:00:36;9.50;91.30
71668;DHT22;59504;54.806;9.640;2024-02-15T02:02:39;9.50;91.30
71668;DHT22;59504;54.806;9.640;2024-02-15T02:04:41;9.50;91.30
71668;DHT22;59504;54.806;9.640;2024-02-15T02:07:02;9.50;91.30
71668;DHT22;59504;54.806;9.640;2024-02-15T02:09:23;9.50;91.30
71668;DHT22;59504;54.806;9.640;2024-02-15T02:11:44;9.60;91.30
71668;DHT22;59504;54.806;9.640;2024-02-15T02:14:05;9.60;91.30
71668;DHT22;59504;54.806;9.640;2024-02-15T02:16:26;9.60;91.30
71668;DHT22;59504;54.806;9.640;2024-02-15T02:18:51;9.60;91.30
71668;DHT22;59504;54.806;9.640;2024-02-15T02:21:12;9.60;91.30
71668;DHT22;59504;54.806;9.640;2024-02-15T02:23:33;9.60;91.30
71668;DHT22;59504;54.806;9.640;2024-02-15T02:25:54;9.60;91.30
71668;DHT22;59504;54.806;9.640;2024-02-15T02:28:15;9.60;91.30
71668;DHT22;59504;54.806;9.640;2024-02-15T02:30:37;9.60;91.30
71668;DHT22;59504;54.806;9.640;2024-02-15T02:32:59;9.60;91.30
71668;DHT22;59504;54.806;9.640;2024-02-15T02:35:19;9.60;91.30
71668;DHT22;59504;54.806;9.640;2024-02-15T02:37:41;9.60;91.30
71668;DHT22;59504;54.806;9.640;2024-02-15T02:40:01;9.60;91.30
71668;DHT22;59504;54.806;9.640;2024-02-15T02:42:22;9.70;91.40
71668;DHT22;59504;54.806;9.640;2024-02-15T02:44:43;9.60;91.30
71668;DHT22;59504;54.806;9.640;2024-02-15T02:47:03;9.60;91.40
71668;DHT22;59504;54.806;9.640;2024-02-15T02:49:24;9.60;91.30
71668;DHT22;59504;54.806;9.640;2024-02-15T02:51:44;9.70;91.40
71668;DHT22;59504;54.806;9.640;2024-02-15T02:54:05;9.70;91.30
71668;DHT22;59504;54.806;9.640;2024-02-15T02:56:26;9.80;91.30
71668;DHT22;59504;54.806;9.640;2024-02-15T02:58:47;9.70;91.30
71668;DHT22;59504;54.806;9.640;2024-02-15T03:01:08;9.60;91.30
71668;DHT22;59504;54.806;9.640;2024-02-15T03:03:28;9.70;91.30
71668;DHT22;59504;54.806;9.640;2024-02-15T03:05:49;9.70;91.30
71668;DHT22;59504;54.806;9.640;2024-02-15T03:08:13;9.70;91.30
71668;DHT22;59504;54.806;9.640;2024-02-15T03:10:33;9.70;91.30
71668;DHT22;59504;54.806;9.640;2024-02-15T03:12:54;9.80;91.30
71668;DHT22;59504;54.806;9.640;2024-02-15T03:15:14;9.70;91.60
71668;DHT22;59504;54.806;9.640;2024-02-15T03:17:35;9.70;91.30
71668;DHT22;59504;54.806;9.640;2024-02-15T03:19:56;9.70;91.30
71668;DHT22;59504;54.806;9.640;2024-02-15T03:22:16;9.60;91.30
71668;DHT22;59504;54.806;9.640;2024-02-15T03:24:37;9.60;91.30
71668;DHT22;59504;54.806;9.640;2024-02-15T03:26:57;9.70;91.30
71668;DHT22;59504;54.806;9.640;2024-02-15T03:29:18;9.70;91.30
71668;DHT22;59504;54.806;9.640;2024-02-15T03:31:40;9.70;91.30
71668;DHT22;59504;54.806;9.640;2024-02-15T03:34:01;9.60;91.20
71668;DHT22;59504;54.806;9.640;2024-02-15T03:36:21;9.70;91.30
71668;DHT22;59504;54.806;9.640;2024-02-15T03:38:43;9.80;91.30
71668;DHT22;59504;54.806;9.640;2024-02-15T03:41:05;9.70;91.30
71668;DHT22;59504;54.806;9.640;2024-02-15T03:43:25;9.60;91.20
71668;DHT22;59504;54.806;9.640;2024-02-15T03:45:46;9.70;91.30
71668;DHT22;59504;54.806;9.640;2024-02-15T03:48:07;9.60;91.20
71668;DHT22;59504;54.806;9.640;2024-02-15T03:50:26;9.60;91.20
71668;DHT22;59504;54.806;9.640;2024-02-15T03:52:45;9.60;91.20
71668;DHT22;59504;54.806;9.640;2024-02-15T03:55:05;9.60;91.20
71668;DHT22;59504;54.806;9.640;2024-02-15T03:57:26;9.60;91.20
71668;DHT22;59504;54.806;9.640;2024-02-15T03:59:45;9.60;91.20
71668;DHT22;59504;54.806;9.640;2024-02-15T04:02:06;9.60;91.20
71668;DHT22;59504;54.806;9.640;2024-02-15T04:04:31;9.50;91.20
71668;DHT22;59504;54.806;9.640;2024-02-15T04:06:50;9.50;91.20
71668;DHT22;59504;54.806;9.640;2024-02-15T04:09:13;9.50;91.50
71668;DHT22;59504;54.806;9.640;2024-02-15T04:11:32;9.50;91.20
71668;DHT22;59504;54.806;9.640;2024-02-15T04:13:52;9.50;91.20
71668;DHT22;59504;54.806;9.640;2024-02-15T04:16:11;9.50;91.20
71668;DHT22;59504;54.806;9.640;2024-02-15T04:18:31;9.50;91.20
71668;DHT22;59504;54.806;9.640;2024-02-15T04:20:51;9.50;91.20
71668;DHT22;59504;54.806;9.640;2024-02-15T04:23:11;9.50;91.20
71668;DHT22;59504;54.806;9.640;2024-02-15T04:25:30;9.50;91.20
71668;DHT22;59504;54.806;9.640;2024-02-15T04:27:50;9.50;91.20
71668;DHT22;59504;54.806;9.640;2024-02-15T04:30:09;9.50;91.60
71668;DHT22;59504;54.806;9.640;2024-02-15T04:32:30;9.50;91.60
71668;DHT22;59504;54.806;9.640;2024-02-15T04:34:52;9.60;91.60
71668;DHT22;59504;54.806;9.640;2024-02-15T04:37:11;9.40;91.20
71668;DHT22;59504;54.806;9.640;2024-02-15T04:39:30;9.50;91.60
71668;DHT22;59504;54.806;9.640;2024-02-15T04:41:50;9.40;91.20
71668;DHT22;59504;54.806;9.640;2024-02-15T04:44:09;9.40;91.50
71668;DHT22;59504;54.806;9.640;2024-02-15T04:46:31;9.40;91.20
71668;DHT22;59504;54.806;9.640;2024-02-15T04:48:50;9.40;91.20
71668;DHT22;59504;54.806;9.640;2024-02-15T04:51:09;9.40;91.20
71668;DHT22;59504;54.806;9.640;2024-02-15T04:53:29;9.40;91.20
71668;DHT22;59504;54.806;9.640;2024-02-15T04:55:49;9.40;91.50
71668;DHT22;59504;54.806;9.640;2024-02-15T04:58:09;9.40;91.20
71668;DHT22;59504;54.806;9.640;2024-02-15T05:00:29;9.40;91.20
71668;DHT22;59504;54.806;9.640;2024-02-15T05:02:49;9.40;91.50
71668;DHT22;59504;54.806;9.640;2024-02-15T05:05:11;9.30;91.20
71668;DHT22;59504;54.806;9.640;2024-02-15T05:07:32;9.40;91.20
71668;DHT22;59504;54.806;9.640;2024-02-15T05:09:51;9.40;91.20
71668;DHT22;59504;54.806;9.640;2024-02-15T05:12:21;9.40;91.20
71668;DHT22;59504;54.806;9.640;2024-02-15T05:14:40;9.30;91.20
71668;DHT22;59504;54.806;9.640;2024-02-15T05:16:59;9.30;91.50
71668;DHT22;59504;54.806;9.640;2024-02-15T05:19:18;9.50;91.60
71668;DHT22;59504;54.806;9.640;2024-02-15T05:21:38;9.30;91.20
71668;DHT22;59504;54.806;9.640;2024-02-15T05:23:57;9.30;91.20
71668;DHT22;59504;54.806;9.640;2024-02-15T05:26:16;9.30;91.20
71668;DHT22;59504;54.806;9.640;2024-02-15T05:28:39;9.30;91.20
71668;DHT22;59504;54.806;9.640;2024-02-15T05:31:08;9.30;91.20
71668;DHT22;59504;54.806;9.640;2024-02-15T05:33:28;9.30;91.20
71668;DHT22;59504;54.806;9.640;2024-02-15T05:35:49;9.30;91.20
71668;DHT22;59504;54.806;9.640;2024-02-15T05:38:10;9.30;91.50
71668;DHT22;59504;54.806;9.640;2024-02-15T05:40:30;9.20;91.20
71668;DHT22;59504;54.806;9.640;2024-02-15T05:42:54;9.30;91.20
71668;DHT22;59504;54.806;9.640;2024-02-15T05:45:27;9.30;91.20
71668;DHT22;59504;54.806;9.640;2024-02-15T05:47:48;9.30;91.20
71668;DHT22;59504;54.806;9.640;2024-02-15T05:50:08;9.30;91.20
71668;DHT22;59504;54.806;9.640;2024-02-15T05:52:28;9.20;91.20
71668;DHT22;59504;54.806;9.640;2024-02-15T05:54:48;9.20;91.20
71668;DHT22;59504;54.806;9.640;2024-02-15T05:57:07;9.20;91.20
71668;DHT22;59504;54.806;9.640;2024-02-15T05:59:26;9.20;91.60
71668;DHT22;59504;54.806;9.640;2024-02-15T06:01:46;9.30;91.30
71668;DHT22;59504;54.806;9.640;2024-02-15T06:04:07;9.20;91.20
71668;DHT22;59504;54.806;9.640;2024-02-15T06:06:27;9.20;91.20
71668;DHT22;59504;54.806;9.640;2024-02-15T06:08:47;9.20;91.40
71668;DHT22;59504;54.806;9.640;2024-02-15T06:11:07;9.20;91.20
71668;DHT22;59504;54.806;9.640;2024-02-15T06:13:29;9.20;91.20
71668;DHT22;59504;54.806;9.640;2024-02-15T06:15:48;9.20;91.20
71668;DHT22;59504;54.806;9.640;2024-02-15T06:18:14;9.20;91.20
71668;DHT22;59504;54.806;9.640;2024-02-15T06:20:35;9.10;91.20
71668;DHT22;59504;54.806;9.640;2024-02-15T06:22:55;9.10;91.20
71668;DHT22;59504;54.806;9.640;2024-02-15T06:25:14;9.10;91.20
71668;DHT22;59504;54.806;9.640;2024-02-15T06:27:40;9.10;91.20
71668;DHT22;59504;54.806;9.640;2024-02-15T06:30:00;9.20;91.30
71668;DHT22;59504;54.806;9.640;2024-02-15T06:32:38;9.10;91.20
71668;DHT22;59504;54.806;9.640;2024-02-15T06:35:16;9.10;91.20
71668;DHT22;59504;54.806;9.640;2024-02-15T06:37:55;9.10;91.30
71668;DHT22;59504;54.806;9.640;2024-02-15T06:40:33;9.10;91.30
71668;DHT22;59504;54.806;9.640;2024-02-15T06:42:52;9.10;91.60
71668;DHT22;59504;54.806;9.640;2024-02-15T06:45:12;9.10;91.60
71668;DHT22;59504;54.806;9.640;2024-02-15T06:47:32;9.10;91.70
71668;DHT22;59504;54.806;9.640;2024-02-15T06:49:51;9.10;91.30
71668;DHT22;59504;54.806;9.640;2024-02-15T06:52:12;9.10;91.40
71668;DHT22;59504;54.806;9.640;2024-02-15T06:54:33;9.10;91.40
71668;DHT22;59504;54.806;9.640;2024-02-15T06:56:52;9.20;91.40
71668;DHT22;59504;54.806;9.640;2024-02-15T06:59:13;9.10;91.40
71668;DHT22;59504;54.806;9.640;2024-02-15T07:01:39;9.10;91.40
71668;DHT22;59504;54.806;9.640;2024-02-15T07:03:58;9.10;91.40
71668;DHT22;59504;54.806;9.640;2024-02-15T07:06:17;9.10;91.40
71668;DHT22;59504;54.806;9.640;2024-02-15T07:08:37;9.10;91.40
71668;DHT22;59504;54.806;9.640;2024-02-15T07:10:56;9.10;91.40
71668;DHT22;59504;54.806;9.640;2024-02-15T07:13:16;9.10;91.40
71668;DHT22;59504;54.806;9.640;2024-02-15T07:15:35;9.10;91.40
71668;DHT22;59504;54.806;9.640;2024-02-15T07:17:56;9.10;91.40
71668;DHT22;59504;54.806;9.640;2024-02-15T07:20:16;9.10;91.40
71668;DHT22;59504;54.806;9.640;2024-02-15T07:22:36;9.10;91.50
71668;DHT22;59504;54.806;9.640;2024-02-15T07:24:56;9.10;91.50
71668;DHT22;59504;54.806;9.640;2024-02-15T07:27:15;9.10;91.50
71668;DHT22;59504;54.806;9.640;2024-02-15T07:29:35;9.10;91.50
71668;DHT22;59504;54.806;9.640;2024-02-15T07:31:56;9.10;91.50
71668;DHT22;59504;54.806;9.640;2024-02-15T07:34:16;9.10;91.50
71668;DHT22;59504;54.806;9.640;2024-02-15T07:36:35;9.20;91.90
71668;DHT22;59504;54.806;9.640;2024-02-15T07:38:55;9.20;91.60
71668;DHT22;59504;54.806;9.640;2024-02-15T07:41:23;9.20;91.60
71668;DHT22;59504;54.806;9.640;2024-02-15T07:43:43;9.20;91.60
71668;DHT22;59504;54.806;9.640;2024-02-15T07:46:03;9.30;91.70
71668;DHT22;59504;54.806;9.640;2024-02-15T07:48:23;9.20;91.70
71668;DHT22;59504;54.806;9.640;2024-02-15T07:50:42;9.20;91.70
71668;DHT22;59504;54.806;9.640;2024-02-15T07:53:03;9.30;91.70
71668;DHT22;59504;54.806;9.640;2024-02-15T07:55:24;9.30;91.70
71668;DHT22;59504;54.806;9.640;2024-02-15T07:57:44;9.40;91.80
71668;DHT22;59504;54.806;9.640;2024-02-15T08:00:03;9.30;92.10
71668;DHT22;59504;54.806;9.640;2024-02-15T08:02:29;9.30;92.10
71668;DHT22;59504;54.806;9.640;2024-02-15T08:04:48;9.40;91.80
71668;DHT22;59504;54.806;9.640;2024-02-15T08:07:07;9.40;91.80
71668;DHT22;59504;54.806;9.640;2024-02-15T08:09:29;9.40;91.80
71668;DHT22;59504;54.806;9.640;2024-02-15T08:11:49;9.60;91.80
71668;DHT22;59504;54.806;9.640;2024-02-15T08:14:09;9.40;91.70
71668;DHT22;59504;54.806;9.640;2024-02-15T08:16:29;9.50;91.80
71668;DHT22;59504;54.806;9.640;2024-02-15T08:18:49;9.50;91.80
71668;DHT22;59504;54.806;9.640;2024-02-15T08:21:11;9.50;91.80
71668;DHT22;59504;54.806;9.640;2024-02-15T08:23:30;9.50;91.80
71668;DHT22;59504;54.806;9.640;2024-02-15T08:25:49;9.50;91.80
71668;DHT22;59504;54.806;9.640;2024-02-15T08:28:11;9.50;92.20
71668;DHT22;59504;54.806;9.640;2024-02-15T08:30:30;9.60;92.20
71668;DHT22;59504;54.806;9.640;2024-02-15T08:32:49;9.60;91.80
71668;DHT22;59504;54.806;9.640;2024-02-15T08:35:09;9.70;92.20
71668;DHT22;59504;54.806;9.640;2024-02-15T08:37:29;9.60;92.20
71668;DHT22;59504;54.806;9.640;2024-02-15T08:39:48;9.70;91.90
71668;DHT22;59504;54.806;9.640;2024-02-15T08:42:08;9.60;91.80
71668;DHT22;59504;54.806;9.640;2024-02-15T08:44:27;9.70;91.90
71668;DHT22;59504;54.806;9.640;2024-02-15T08:46:47;9.80;92.20
71668;DHT22;59504;54.806;9.640;2024-02-15T08:49:07;9.70;91.90
71668;DHT22;59504;54.806;9.640;2024-02-15T08:51:26;9.70;91.90
71668;DHT22;59504;54.806;9.640;2024-02-15T08:53:45;9.80;91.90
71668;DHT22;59504;54.806;9.640;2024-02-15T08:56:05;9.80;91.90
71668;DHT22;59504;54.806;9.640;2024-02-15T08:58:25;9.80;91.90
71668;DHT22;59504;54.806;9.640;2024-02-15T09:00:45;9.80;91.90
71668;DHT22;59504;54.806;9.640;2024-02-15T09:03:05;9.80;91.90
71668;DHT22;59504;54.806;9.640;2024-02-15T09:05:26;9.90;92.00
71668;DHT22;59504;54.806;9.640;2024-02-15T09:07:45;9.90;92.00
71668;DHT22;59504;54.806;9.640;2024-02-15T09:10:09;10.00;92.30
71668;DHT22;59504;54.806;9.640;2024-02-15T09:12:29;10.00;92.00
71668;DHT22;59504;54.806;9.640;2024-02-15T09:14:50;10.00;92.00
71668;DHT22;59504;54.806;9.640;2024-02-15T09:17:09;10.00;92.00
71668;DHT22;59504;54.806;9.640;2024-02-15T09:19:29;10.10;92.10
71668;DHT22;59504;54.806;9.640;2024-02-15T09:21:48;10.10;92.10
71668;DHT22;59504;54.806;9.640;2024-02-15T09:24:07;10.10;92.40
71668;DHT22;59504;54.806;9.640;2024-02-15T09:26:26;10.20;92.10
71668;DHT22;59504;54.806;9.640;2024-02-15T09:28:46;10.20;92.10
71668;DHT22;59504;54.806;9.640;2024-02-15T09:31:06;10.20;92.10
71668;DHT22;59504;54.806;9.640;2024-02-15T09:33:06;10.20;92.10
71668;DHT22;59504;54.806;9.640;2024-02-15T09:35:07;10.30;92.10
71668;DHT22;59504;54.806;9.640;2024-02-15T09:37:08;10.20;92.10
71668;DHT22;59504;54.806;9.640;2024-02-15T09:39:09;10.30;92.10
71668;DHT22;59504;54.806;9.640;2024-02-15T09:41:14;10.30;92.10
71668;DHT22;59504;54.806;9.640;2024-02-15T09:43:14;10.30;92.10
71668;DHT22;59504;54.806;9.640;2024-02-15T09:45:15;10.30;92.10
71668;DHT22;59504;54.806;9.640;2024-02-15T09:47:19;10.30;92.10
71668;DHT22;59504;54.806;9.640;2024-02-15T09:49:19;10.40;92.10
71668;DHT22;59504;54.806;9.640;2024-02-15T09:51:41;10.40;92.10
71668;DHT22;59504;54.806;9.640;2024-02-15T09:53:43;10.40;92.10
71668;DHT22;59504;54.806;9.640;2024-02-15T09:56:04;10.40;92.10
71668;DHT22;59504;54.806;9.640;2024-02-15T09:58:26;10.50;92.10
71668;DHT22;59504;54.806;9.640;2024-02-15T10:00:46;10.50;92.10
71668;DHT22;59504;54.806;9.640;2024-02-15T10:03:07;10.50;92.00
71668;DHT22;59504;54.806;9.640;2024-02-15T10:05:23;10.60;92.10
71668;DHT22;59504;54.806;9.640;2024-02-15T10:07:44;10.60;92.10
71668;DHT22;59504;54.806;9.640;2024-02-15T10:09:46;10.50;92.00
71668;DHT22;59504;54.806;9.640;2024-02-15T10:12:06;10.60;92.10
71668;DHT22;59504;54.806;9.640;2024-02-15T10:14:28;10.60;92.00
71668;DHT22;59504;54.806;9.640;2024-02-15T10:16:30;10.60;92.00
71668;DHT22;59504;54.806;9.640;2024-02-15T10:19:00;10.70;92.40
71668;DHT22;59504;54.806;9.640;2024-02-15T10:21:28;10.60;92.00
71668;DHT22;59504;54.806;9.640;2024-02-15T10:24:06;10.70;92.10
71668;DHT22;59504;54.806;9.640;2024-02-15T10:26:27;10.70;92.10
71668;DHT22;59504;54.806;9.640;2024-02-15T10:29:02;10.70;92.10
71668;DHT22;59504;54.806;9.640;2024-02-15T10:31:26;10.90;92.10
71668;DHT22;59504;54.806;9.640;2024-02-15T10:33:47;10.80;92.10
71668;DHT22;59504;54.806;9.640;2024-02-15T10:36:10;10.90;92.10
71668;DHT22;59504;54.806;9.640;2024-02-15T10:38:31;10.80;92.10
71668;DHT22;59504;54.806;9.640;2024-02-15T10:40:52;10.90;92.10
71668;DHT22;59504;54.806;9.640;2024-02-15T10:43:22;11.00;92.10
71668;DHT22;59504;54.806;9.640;2024-02-15T10:45:43;10.90;92.10
71668;DHT22;59504;54.806;9.640;2024-02-15T10:48:06;10.90;92.10
71668;DHT22;59504;54.806;9.640;2024-02-15T10:50:26;11.00;92.10
71668;DHT22;59504;54.806;9.640;2024-02-15T10:52:57;11.00;92.10
71668;DHT22;59504;54.806;9.640;2024-02-15T10:55:21;11.00;92.10
71668;DHT22;59504;54.806;9.640;2024-02-15T10:57:43;11.00;92.10
71668;DHT22;59504;54.806;9.640;2024-02-15T11:00:06;11.10;92.10
71668;DHT22;59504;54.806;9.640;2024-02-15T11:02:33;11.10;92.10
71668;DHT22;59504;54.806;9.640;2024-02-15T11:04:55;11.10;92.10
71668;DHT22;59504;54.806;9.640;2024-02-15T11:07:17;11.10;92.00
71668;DHT22;59504;54.806;9.640;2024-02-15T11:09:38;11.10;92.00
71668;DHT22;59504;54.806;9.640;2024-02-15T11:12:00;11.10;92.00
71668;DHT22;59504;54.806;9.640;2024-02-15T11:14:31;11.10;92.00
71668;DHT22;59504;54.806;9.640;2024-02-15T11:16:52;11.10;92.00
71668;DHT22;59504;54.806;9.640;2024-02-15T11:21:53;11.20;92.00
71668;DHT22;59504;54.806;9.640;2024-02-15T11:24:35;11.20;92.00
71668;DHT22;59504;54.806;9.640;2024-02-15T11:27:01;11.20;92.00
71668;DHT22;59504;54.806;9.640;2024-02-15T11:32:04;11.20;92.00
71668;DHT22;59504;54.806;9.640;2024-02-15T11:34:41;11.30;92.10
71668;DHT22;59504;54.806;9.640;2024-02-15T11:37:02;11.30;92.10
71668;DHT22;59504;54.806;9.640;2024-02-15T11:39:41;11.30;92.10
71668;DHT22;59504;54.806;9.640;2024-02-15T11:42:24;11.40;92.50
71668;DHT22;59504;54.806;9.640;2024-02-15T11:44:45;11.40;92.20
71668;DHT22;59504;54.806;9.640;2024-02-15T11:47:06;11.40;92.20
71668;DHT22;59504;54.806;9.640;2024-02-15T11:49:26;11.50;92.30
71668;DHT22;59504;54.806;9.640;2024-02-15T11:51:47;11.50;92.30
71668;DHT22;59504;54.806;9.640;2024-02-15T11:54:07;11.60;92.30
71668;DHT22;59504;54.806;9.640;2024-02-15T11:56:26;11.60;92.20
71668;DHT22;59504;54.806;9.640;2024-02-15T11:59:05;11.60;92.60
71668;DHT22;59504;54.806;9.640;2024-02-15T12:01:29;11.70;92.30
71668;DHT22;59504;54.806;9.640;2024-02-15T12:04:08;11.60;92.20
71668;DHT22;59504;54.806;9.640;2024-02-15T12:06:47;11.70;92.20
71668;DHT22;59504;54.806;9.640;2024-02-15T12:09:25;11.70;92.20
71668;DHT22;59504;54.806;9.640;2024-02-15T12:12:03;11.70;92.20
71668;DHT22;59504;54.806;9.640;2024-02-15T12:14:41;11.70;92.20
71668;DHT22;59504;54.806;9.640;2024-02-15T12:17:20;11.80;92.20
71668;DHT22;59504;54.806;9.640;2024-02-15T12:20:02;11.80;92.20
71668;DHT22;59504;54.806;9.640;2024-02-15T12:24:45;11.80;92.20
71668;DHT22;59504;54.806;9.640;2024-02-15T12:27:04;11.90;92.30
71668;DHT22;59504;54.806;9.640;2024-02-15T12:29:24;11.90;92.30
71668;DHT22;59504;54.806;9.640;2024-02-15T12:31:44;12.00;92.30
71668;DHT22;59504;54.806;9.640;2024-02-15T12:34:03;12.00;92.30
71668;DHT22;59504;54.806;9.640;2024-02-15T12:36:26;12.00;92.30
71668;DHT22;59504;54.806;9.640;2024-02-15T12:38:45;12.20;92.30
71668;DHT22;59504;54.806;9.640;2024-02-15T12:41:17;12.10;92.20
71668;DHT22;59504;54.806;9.640;2024-02-15T12:43:38;12.00;92.20
71668;DHT22;59504;54.806;9.640;2024-02-15T12:45:57;12.10;92.60
71668;DHT22;59504;54.806;9.640;2024-02-15T12:48:18;12.10;92.20
71668;DHT22;59504;54.806;9.640;2024-02-15T12:50:38;12.20;92.20
71668;DHT22;59504;54.806;9.640;2024-02-15T12:52:57;12.20;92.20
71668;DHT22;59504;54.806;9.640;2024-02-15T12:55:22;12.20;92.20
71668;DHT22;59504;54.806;9.640;2024-02-15T12:57:44;12.20;92.20
71668;DHT22;59504;54.806;9.640;2024-02-15T13:00:06;12.20;92.20
71668;DHT22;59504;54.806;9.640;2024-02-15T13:02:30;12.20;92.50
71668;DHT22;59504;54.806;9.640;2024-02-15T13:04:49;12.30;92.20
71668;DHT22;59504;54.806;9.640;2024-02-15T13:07:08;12.20;92.10
71668;DHT22;59504;54.806;9.640;2024-02-15T13:09:28;12.30;92.10
71668;DHT22;59504;54.806;9.640;2024-02-15T13:11:47;12.30;92.10
71668;DHT22;59504;54.806;9.640;2024-02-15T13:14:06;12.30;92.10
71668;DHT22;59504;54.806;9.640;2024-02-15T13:16:26;12.30;92.10
71668;DHT22;59504;54.806;9.640;2024-02-15T13:18:48;12.40;92.10
71668;DHT22;59504;54.806;9.640;2024-02-15T13:21:07;12.40;92.10
71668;DHT22;59504;54.806;9.640;2024-02-15T13:23:29;12.50;92.40
71668;DHT22;59504;54.806;9.640;2024-02-15T13:25:50;12.40;92.10
71668;DHT22;59504;54.806;9.640;2024-02-15T13:28:11;12.40;92.10
71668;DHT22;59504;54.806;9.640;2024-02-15T13:30:32;12.40;92.00
71668;DHT22;59504;54.806;9.640;2024-02-15T13:32:51;12.40;92.00
71668;DHT22;59504;54.806;9.640;2024-02-15T13:35:14;12.40;92.00
71668;DHT22;59504;54.806;9.640;2024-02-15T13:37:33;12.40;92.40
71668;DHT22;59504;54.806;9.640;2024-02-15T13:39:52;12.40;92.00
71668;DHT22;59504;54.806;9.640;2024-02-15T13:42:15;12.40;92.30
71668;DHT22;59504;54.806;9.640;2024-02-15T13:44:35;12.40;92.00
71668;DHT22;59504;54.806;9.640;2024-02-15T13:46:54;12.50;92.10
71668;DHT22;59504;54.806;9.640;2024-02-15T13:49:14;12.50;92.40
71668;DHT22;59504;54.806;9.640;2024-02-15T13:51:34;12.50;92.50
71668;DHT22;59504;54.806;9.640;2024-02-15T13:53:53;12.50;92.10
71668;DHT22;59504;54.806;9.640;2024-02-15T13:56:14;12.50;92.10
71668;DHT22;59504;54.806;9.640;2024-02-15T13:58:35;12.50;92.40
71668;DHT22;59504;54.806;9.640;2024-02-15T14:00:54;12.50;92.10
71668;DHT22;59504;54.806;9.640;2024-02-15T14:03:16;12.60;92.10
71668;DHT22;59504;54.806;9.640;2024-02-15T14:05:37;12.60;92.40
71668;DHT22;59504;54.806;9.640;2024-02-15T14:07:59;12.60;92.10
71668;DHT22;59504;54.806;9.640;2024-02-15T14:10:18;12.60;92.40
71668;DHT22;59504;54.806;9.640;2024-02-15T14:12:38;12.60;92.10
71668;DHT22;59504;54.806;9.640;2024-02-15T14:14:58;12.60;92.00
71668;DHT22;59504;54.806;9.640;2024-02-15T14:17:17;12.60;92.00
71668;DHT22;59504;54.806;9.640;2024-02-15T14:19:36;12.80;92.10
71668;DHT22;59504;54.806;9.640;2024-02-15T14:21:55;12.70;92.00
71668;DHT22;59504;54.806;9.640;2024-02-15T14:24:15;12.70;92.00
71668;DHT22;59504;54.806;9.640;2024-02-15T14:26:38;12.60;92.00
71668;DHT22;59504;54.806;9.640;2024-02-15T14:28:57;12.70;92.00
71668;DHT22;59504;54.806;9.640;2024-02-15T14:31:17;12.60;92.00
71668;DHT22;59504;54.806;9.640;2024-02-15T14:33:56;12.70;92.00
71668;DHT22;59504;54.806;9.640;2024-02-15T14:36:15;12.70;91.90
71668;DHT22;59504;54.806;9.640;2024-02-15T14:38:35;12.60;91.90
71668;DHT22;59504;54.806;9.640;2024-02-15T14:40:54;12.60;91.90
71668;DHT22;59504;54.806;9.640;2024-02-15T14:43:15;12.70;91.90
71668;DHT22;59504;54.806;9.640;2024-02-15T14:45:34;12.70;91.90
71668;DHT22;59504;54.806;9.640;2024-02-15T14:47:55;12.70;91.90
71668;DHT22;59504;54.806;9.640;2024-02-15T14:50:14;12.60;91.90
71668;DHT22;59504;54.806;9.640;2024-02-15T14:52:30;12.60;91.90
71668;DHT22;59504;54.806;9.640;2024-02-15T14:54:50;12.60;91.90
71668;DHT22;59504;54.806;9.640;2024-02-15T14:57:10;12.70;91.90
71668;DHT22;59504;54.806;9.640;2024-02-15T14:59:30;12.60;91.80
71668;DHT22;59504;54.806;9.640;2024-02-15T15:01:49;12.60;91.80